Time;durP1;ratioP1;P1;durP2;ratioP2;P2;SDS_P1;SDS_P2;PMS_P1;PMS_P2;Temp;Humidity;BMP_temperature;BMP_pressure;BME280_temperature;BME280_humidity;BME280_pressure;Samples;Min_cycle;Max_cycle;Signal;HPM_P1;HPM_P2
2024/04/08 00:00:42;;;;;;;11.18;2.15;;;;;;;8.90;77.32;99348.56;5023359;28;20060;-65
2024/04/08 00:03:09;;;;;;;14.65;1.95;;;;;;;8.89;77.43;99357.22;5028045;28;20103;-65
2024/04/08 00:05:36;;;;;;;5.95;1.90;;;;;;;8.88;77.57;99350.09;5027098;28;20399;-65
2024/04/08 00:08:03;;;;;;;12.10;2.47;;;;;;;8.87;77.46;99346.53;5027826;28;20056;-65
2024/04/08 00:10:29;;;;;;;15.27;2.38;;;;;;;8.84;77.51;99346.50;5027491;28;20529;-65
2024/04/08 00:12:56;;;;;;;8.75;1.65;;;;;;;8.80;77.51;99342.88;5027676;28;20847;-65
2024/04/08 00:15:22;;;;;;;8.57;1.40;;;;;;;8.77;77.57;99338.88;5027662;28;20525;-65
2024/04/08 00:17:48;;;;;;;7.80;1.70;;;;;;;8.74;77.37;99338.81;5028096;28;20545;-65
2024/04/08 00:20:14;;;;;;;8.77;1.75;;;;;;;8.71;77.86;99328.53;5030313;28;20099;-65
2024/04/08 00:22:42;;;;;;;10.60;2.80;;;;;;;8.69;77.75;99336.34;5031506;28;20049;-65
2024/04/08 00:25:09;;;;;;;9.98;2.83;;;;;;;8.66;77.84;99343.41;5031051;28;20049;-65
2024/04/08 00:27:36;;;;;;;19.30;4.35;;;;;;;8.63;77.94;99343.34;5027657;28;20064;-65
2024/04/08 00:30:05;;;;;;;8.95;2.28;;;;;;;8.60;77.99;99338.56;5027949;28;20291;-65
2024/04/08 00:32:32;;;;;;;16.38;2.55;;;;;;;8.56;78.04;99338.50;5030442;28;20057;-64
2024/04/08 00:34:58;;;;;;;13.90;2.40;;;;;;;8.53;78.34;99341.97;5030518;28;20044;-65
2024/04/08 00:37:26;;;;;;;7.00;1.48;;;;;;;8.52;78.53;99346.69;5030936;28;20549;-64
2024/04/08 00:39:52;;;;;;;7.07;1.60;;;;;;;8.51;78.32;99345.09;5030144;28;20072;-65
2024/04/08 00:42:18;;;;;;;5.20;1.45;;;;;;;8.52;78.46;99343.16;5030044;28;20541;-66
2024/04/08 00:44:45;;;;;;;10.93;2.40;;;;;;;8.48;78.57;99347.78;5020505;28;20046;-64
2024/04/08 00:47:13;;;;;;;8.50;1.50;;;;;;;8.45;78.51;99345.75;5030162;28;20049;-65
2024/04/08 00:49:41;;;;;;;5.72;1.73;;;;;;;8.44;78.64;99336.72;5028748;28;20053;-63
2024/04/08 00:52:12;;;;;;;8.07;1.95;;;;;;;8.43;78.81;99345.34;5026599;28;20053;-63
2024/04/08 00:54:39;;;;;;;9.30;1.43;;;;;;;8.40;79.00;99344.09;5030208;28;20060;-64
2024/04/08 00:57:12;;;;;;;11.73;1.85;;;;;;;8.39;79.06;99344.47;5027050;28;20053;-64
2024/04/08 00:59:39;;;;;;;5.75;1.83;;;;;;;8.41;79.14;99350.41;5029632;28;20060;-66
2024/04/08 01:02:05;;;;;;;5.90;1.90;;;;;;;8.41;79.07;99345.72;5031337;28;20057;-64
2024/04/08 01:04:32;;;;;;;7.07;1.48;;;;;;;8.42;79.24;99347.28;5031129;28;20045;-64
2024/04/08 01:06:59;;;;;;;8.40;1.40;;;;;;;8.42;79.33;99343.72;5032921;28;20060;-64
2024/04/08 01:09:27;;;;;;;6.50;1.60;;;;;;;8.39;79.44;99344.47;5031434;28;20491;-65
2024/04/08 01:11:53;;;;;;;8.13;1.70;;;;;;;8.38;79.80;99349.19;5039790;28;20045;-64
2024/04/08 01:14:20;;;;;;;10.27;1.80;;;;;;;8.37;79.50;99342.06;5047333;28;20052;-64
2024/04/08 01:16:46;;;;;;;8.65;1.60;;;;;;;8.34;79.81;99342.78;5047437;28;20041;-64
2024/04/08 01:19:18;;;;;;;12.57;3.25;;;;;;;8.33;79.93;99356.97;5049929;28;20052;-64
2024/04/08 01:21:45;;;;;;;7.82;2.30;;;;;;;8.31;79.98;99348.25;5050258;28;20056;-64
2024/04/08 01:24:13;;;;;;;9.70;2.22;;;;;;;8.31;80.18;99351.03;5039257;28;20598;-64
2024/04/08 01:26:40;;;;;;;5.18;1.33;;;;;;;8.31;80.15;99348.25;5054944;28;20413;-64
2024/04/08 01:29:06;;;;;;;7.75;1.33;;;;;;;8.33;80.32;99340.41;5040115;28;20053;-64
2024/04/08 01:31:33;;;;;;;10.05;2.45;;;;;;;8.33;80.21;99346.72;5049974;28;20612;-64
2024/04/08 01:33:59;;;;;;;11.43;2.05;;;;;;;8.35;80.19;99346.34;5041649;28;20053;-64
2024/04/08 01:36:26;;;;;;;8.57;1.52;;;;;;;8.35;80.22;99341.66;5009764;28;20041;-64
2024/04/08 01:38:52;;;;;;;7.10;1.92;;;;;;;8.34;80.27;99342.03;5039699;28;20521;-64
2024/04/08 01:41:18;;;;;;;10.95;3.38;;;;;;;8.34;80.23;99353.06;5021937;28;20052;-64
2024/04/08 01:43:45;;;;;;;11.13;1.98;;;;;;;8.34;80.48;99345.56;5038320;28;20048;-64
2024/04/08 01:46:13;;;;;;;17.60;3.55;;;;;;;8.33;80.37;99335.69;5049320;28;20048;-64
2024/04/08 01:48:39;;;;;;;13.50;2.60;;;;;;;8.32;80.50;99339.59;5049263;28;20048;-65
2024/04/08 01:51:05;;;;;;;10.60;1.80;;;;;;;8.30;80.64;99335.63;5050055;28;20052;-65
2024/04/08 01:53:31;;;;;;;8.50;1.63;;;;;;;8.28;80.67;99332.44;5027625;28;20045;-64
2024/04/08 01:55:58;;;;;;;10.57;2.85;;;;;;;8.29;80.80;99317.47;5041589;28;20053;-64
2024/04/08 01:58:24;;;;;;;13.80;2.60;;;;;;;8.28;80.89;99316.69;5030372;28;20064;-64
2024/04/08 02:00:50;;;;;;;6.32;1.42;;;;;;;8.29;81.08;99314.72;5039619;28;20041;-64
2024/04/08 02:03:16;;;;;;;8.88;2.80;;;;;;;8.30;81.02;99308.06;5049643;28;20052;-64
2024/04/08 02:05:46;;;;;;;9.63;1.55;;;;;;;8.31;81.13;99309.66;5035993;28;20041;-64
2024/04/08 02:08:12;;;;;;;7.43;1.75;;;;;;;8.32;81.13;99314.00;5040136;28;20063;-64
2024/04/08 02:10:38;;;;;;;11.20;1.35;;;;;;;8.34;81.17;99317.22;5038260;28;20052;-64
2024/04/08 02:13:04;;;;;;;8.43;1.85;;;;;;;8.34;81.15;99304.19;5038400;28;20060;-64
2024/04/08 02:15:31;;;;;;;10.38;2.15;;;;;;;8.37;81.19;99303.47;5046099;28;20055;-64
2024/04/08 02:17:57;;;;;;;18.35;3.00;;;;;;;8.40;81.09;99301.94;5038928;28;20051;-64
2024/04/08 02:20:23;;;;;;;17.23;2.70;;;;;;;8.43;81.28;99309.47;5034630;28;20056;-64
2024/04/08 02:22:49;;;;;;;7.75;1.88;;;;;;;8.44;81.26;99302.81;5056966;28;20045;-64
2024/04/08 02:25:16;;;;;;;8.73;2.30;;;;;;;8.46;81.24;99292.22;5025467;28;20056;-64
2024/04/08 02:27:42;;;;;;;8.73;1.67;;;;;;;8.45;81.48;99294.16;5045400;28;20053;-64
2024/04/08 02:30:08;;;;;;;18.83;3.80;;;;;;;8.46;81.54;99303.25;5030406;28;20057;-64
2024/04/08 02:32:35;;;;;;;11.80;1.85;;;;;;;8.50;81.39;99306.84;5030542;28;20075;-64
2024/04/08 02:35:02;;;;;;;7.30;1.65;;;;;;;8.51;81.43;99297.41;5028119;28;20049;-64
2024/04/08 02:37:28;;;;;;;12.00;1.92;;;;;;;8.51;81.63;99298.22;5035930;28;20059;-64
2024/04/08 02:39:54;;;;;;;5.80;1.52;;;;;;;8.51;81.61;99295.47;5021471;28;20056;-64
2024/04/08 02:42:20;;;;;;;9.63;1.85;;;;;;;8.49;81.56;99295.03;5022455;28;20057;-64
2024/04/08 02:44:47;;;;;;;10.25;2.00;;;;;;;8.49;81.70;99297.00;5031680;28;20036;-64
2024/04/08 02:47:15;;;;;;;14.15;2.15;;;;;;;8.50;81.75;99293.06;5031475;28;20041;-64
2024/04/08 02:49:41;;;;;;;14.57;5.22;;;;;;;8.51;81.82;99295.47;5040238;28;20049;-64
2024/04/08 02:52:07;;;;;;;8.80;1.83;;;;;;;8.52;81.84;99288.00;5035547;28;20048;-64
2024/04/08 02:54:33;;;;;;;9.93;2.75;;;;;;;8.51;81.88;99286.38;5031533;28;20060;-64
2024/04/08 02:56:59;;;;;;;9.07;2.50;;;;;;;8.53;81.85;99284.84;5029862;28;20503;-64
2024/04/08 02:59:26;;;;;;;13.57;1.38;;;;;;;8.53;82.03;99284.84;5028499;28;20044;-64
2024/04/08 03:01:52;;;;;;;8.85;2.58;;;;;;;8.53;82.05;99287.59;5121545;22;20051;-64
2024/04/08 03:04:18;;;;;;;10.73;1.90;;;;;;;8.54;81.97;99285.66;5039671;28;20057;-64
2024/04/08 03:06:44;;;;;;;12.02;2.30;;;;;;;8.54;82.07;99277.38;5035166;28;20056;-64
2024/04/08 03:09:11;;;;;;;9.65;1.92;;;;;;;8.56;82.18;99283.31;5035384;28;20056;-64
2024/04/08 03:11:37;;;;;;;11.18;2.35;;;;;;;8.57;82.09;99273.88;5036549;28;20052;-65
2024/04/08 03:14:05;;;;;;;12.65;1.88;;;;;;;8.58;82.19;99270.75;5037376;28;20041;-64
2024/04/08 03:16:31;;;;;;;11.20;2.50;;;;;;;8.59;82.09;99271.56;5037527;28;20071;-64
2024/04/08 03:18:57;;;;;;;9.02;1.77;;;;;;;8.60;82.21;99267.66;5045700;28;20052;-64
2024/04/08 03:21:24;;;;;;;7.97;2.00;;;;;;;8.61;81.96;99283.00;5038854;28;20048;-64
2024/04/08 03:23:50;;;;;;;13.57;2.10;;;;;;;8.63;81.96;99272.41;5035695;28;20044;-64
2024/04/08 03:26:16;;;;;;;10.38;1.85;;;;;;;8.65;82.17;99272.84;5044358;28;20060;-64
2024/04/08 03:28:42;;;;;;;8.93;1.33;;;;;;;8.66;82.19;99277.19;5031249;28;20047;-64
2024/04/08 03:31:09;;;;;;;8.43;1.63;;;;;;;8.68;82.25;99274.88;5032658;28;20068;-64
2024/04/08 03:33:35;;;;;;;3.53;1.60;;;;;;;8.69;82.15;99270.94;5045043;28;20044;-64
2024/04/08 03:36:11;;;;;;;5.47;1.33;;;;;;;8.70;82.12;99278.06;5046066;28;20048;-64
2024/04/08 03:38:37;;;;;;;9.90;1.52;;;;;;;8.70;82.29;99272.53;5039134;28;20052;-64
2024/04/08 03:41:06;;;;;;;8.80;2.40;;;;;;;8.72;82.27;99286.75;5042858;28;20049;-64
2024/04/08 03:43:33;;;;;;;9.00;1.63;;;;;;;8.74;82.39;99283.63;5045408;28;20045;-64
2024/04/08 03:46:00;;;;;;;8.98;1.50;;;;;;;8.75;82.33;99277.75;5047085;28;20060;-64
2024/04/08 03:48:27;;;;;;;14.63;1.92;;;;;;;8.76;82.34;99276.59;5036935;28;20044;-64
2024/04/08 03:50:53;;;;;;;8.57;1.60;;;;;;;8.76;82.41;99284.88;5042525;28;20041;-63
2024/04/08 03:53:20;;;;;;;7.07;1.63;;;;;;;8.76;82.40;99275.78;5030779;28;20037;-65
2024/04/08 03:55:46;;;;;;;10.82;2.58;;;;;;;8.74;82.35;99281.66;5049289;28;20057;-64
2024/04/08 03:58:12;;;;;;;10.13;2.03;;;;;;;8.76;82.40;99287.63;5035831;28;20056;-64
2024/04/08 04:00:39;;;;;;;7.72;1.48;;;;;;;8.74;82.63;99278.91;5046686;28;20041;-65
2024/04/08 04:03:05;;;;;;;13.55;2.08;;;;;;;8.73;82.65;99282.84;5077756;28;20059;-64
2024/04/08 04:05:31;;;;;;;6.38;2.00;;;;;;;8.72;82.99;99281.25;5087609;28;20048;-64
2024/04/08 04:07:57;;;;;;;8.85;2.45;;;;;;;8.73;82.88;99279.28;5081528;28;20059;-64
2024/04/08 04:10:24;;;;;;;12.05;2.38;;;;;;;8.73;82.96;99288.38;5085238;28;20052;-64
2024/04/08 04:12:50;;;;;;;8.02;1.85;;;;;;;8.74;82.98;99284.41;5071640;28;20036;-64
2024/04/08 04:15:16;;;;;;;9.40;1.40;;;;;;;8.73;83.08;99288.38;5082352;28;20051;-64
2024/04/08 04:17:43;;;;;;;13.82;1.60;;;;;;;8.72;83.16;99289.50;5083323;28;20040;-64
2024/04/08 04:20:10;;;;;;;12.20;2.53;;;;;;;8.72;83.14;99285.97;5082071;28;20060;-64
2024/04/08 04:22:36;;;;;;;16.00;1.90;;;;;;;8.73;83.07;99282.84;5085908;28;20524;-65
2024/04/08 04:25:03;;;;;;;4.88;1.63;;;;;;;8.73;83.07;99287.56;5080629;28;20048;-64
2024/04/08 04:27:29;;;;;;;12.35;3.25;;;;;;;8.68;83.09;99288.69;5089371;28;20048;-64
2024/04/08 04:29:56;;;;;;;12.23;2.25;;;;;;;8.70;83.17;99288.28;5079372;28;20051;-64
2024/04/08 04:32:22;;;;;;;16.10;1.88;;;;;;;8.68;83.07;99285.91;5056926;28;20044;-64
2024/04/08 04:34:52;;;;;;;12.60;1.90;;;;;;;8.68;83.25;99285.91;5075349;28;20046;-64
2024/04/08 04:37:20;;;;;;;12.15;2.13;;;;;;;8.64;83.19;99285.03;5083180;28;20501;-64
2024/04/08 04:39:46;;;;;;;8.23;2.20;;;;;;;8.62;83.45;99290.13;5078437;28;20079;-64
2024/04/08 04:42:13;;;;;;;7.03;1.55;;;;;;;8.62;83.35;99290.13;5084781;28;20058;-63
2024/04/08 04:44:39;;;;;;;5.88;1.20;;;;;;;8.64;83.56;99292.50;5090445;28;20036;-63
2024/04/08 04:47:05;;;;;;;6.00;1.67;;;;;;;8.64;83.55;99290.56;5088876;28;20044;-62
2024/04/08 04:49:32;;;;;;;17.90;3.05;;;;;;;8.62;83.70;99287.38;5090355;28;20055;-62
2024/04/08 04:52:02;;;;;;;9.00;1.85;;;;;;;8.62;83.65;99286.56;5090147;28;20101;-61
2024/04/08 04:54:28;;;;;;;10.13;1.60;;;;;;;8.62;83.76;99286.56;5084345;28;20401;-62
2024/04/08 04:56:55;;;;;;;12.00;2.25;;;;;;;8.60;83.92;99294.44;5077700;28;20055;-62
2024/04/08 04:59:22;;;;;;;6.43;1.92;;;;;;;8.59;84.04;99282.59;5082171;28;20052;-62
2024/04/08 05:01:48;;;;;;;5.10;1.75;;;;;;;8.57;83.96;99285.72;5085496;28;20051;-62
2024/04/08 05:04:14;;;;;;;10.82;3.53;;;;;;;8.56;84.08;99286.06;5076931;28;20509;-61
2024/04/08 05:06:40;;;;;;;7.32;1.55;;;;;;;8.53;84.24;99284.06;5082735;28;20405;-62
2024/04/08 05:09:08;;;;;;;7.88;1.42;;;;;;;8.52;84.14;99288.00;5089213;28;20059;-61
2024/04/08 05:11:34;;;;;;;7.28;1.50;;;;;;;8.49;84.19;99285.97;5055245;28;20048;-61
2024/04/08 05:14:00;;;;;;;7.78;1.35;;;;;;;8.48;84.45;99287.91;5074746;28;20059;-62
2024/04/08 05:16:26;;;;;;;12.77;1.80;;;;;;;8.47;84.49;99291.06;5073036;28;20056;-63
2024/04/08 05:18:52;;;;;;;11.80;1.50;;;;;;;8.45;84.43;99294.16;5083603;28;20055;-64
2024/04/08 05:21:21;;;;;;;7.80;1.40;;;;;;;8.46;84.56;99284.72;5083516;28;20145;-64
2024/04/08 05:23:49;;;;;;;8.93;2.20;;;;;;;8.46;84.72;99294.97;5069625;28;20044;-64
2024/04/08 05:26:16;;;;;;;12.05;2.63;;;;;;;8.45;84.71;99288.66;5076767;28;20504;-63
2024/04/08 05:28:45;;;;;;;6.85;1.85;;;;;;;8.45;84.91;99276.81;5053932;28;20401;-64
2024/04/08 05:31:11;;;;;;;10.20;1.80;;;;;;;8.45;85.12;99283.13;5070969;28;20056;-64
2024/04/08 05:33:37;;;;;;;6.40;1.65;;;;;;;8.44;85.11;99286.25;5074582;28;20047;-64
2024/04/08 05:36:04;;;;;;;12.07;2.58;;;;;;;8.42;85.38;99288.56;5088899;28;20066;-64
2024/04/08 05:38:30;;;;;;;7.78;1.58;;;;;;;8.41;85.44;99281.47;5088133;28;20042;-64
2024/04/08 05:41:01;;;;;;;6.60;3.15;;;;;;;8.40;85.59;99280.69;5077165;28;20052;-64
2024/04/08 05:43:28;;;;;;;2.67;1.30;;;;;;;8.40;85.89;99280.69;5080613;28;20047;-66
2024/04/08 05:45:54;;;;;;;8.02;1.70;;;;;;;8.41;86.08;99287.00;5088880;28;20476;-65
2024/04/08 05:48:20;;;;;;;7.60;1.58;;;;;;;8.39;86.22;99290.09;5086237;28;20046;-64
2024/04/08 05:50:50;;;;;;;11.07;2.22;;;;;;;8.40;86.50;99283.44;5075456;28;20040;-64
2024/04/08 05:53:16;;;;;;;5.63;1.52;;;;;;;8.40;86.56;99293.66;5081979;28;20048;-64
2024/04/08 05:55:43;;;;;;;9.80;1.92;;;;;;;8.39;86.70;99289.31;5087318;28;20460;-65
2024/04/08 05:58:10;;;;;;;8.80;2.03;;;;;;;8.39;87.02;99294.84;5070305;28;20502;-64
2024/04/08 06:00:37;;;;;;;11.52;3.33;;;;;;;8.38;87.29;99294.03;5078546;28;20054;-65
2024/04/08 06:03:04;;;;;;;11.90;1.85;;;;;;;8.37;87.39;99294.38;5087072;28;20058;-65
2024/04/08 06:05:31;;;;;;;12.52;2.03;;;;;;;8.38;87.61;99288.53;5081046;28;20044;-64
2024/04/08 06:07:57;;;;;;;12.70;2.00;;;;;;;8.38;87.45;99282.22;5086072;28;20054;-65
2024/04/08 06:10:31;;;;;;;10.13;2.40;;;;;;;8.40;88.13;99288.16;5086740;28;20043;-65
2024/04/08 06:14:09;;;;;;;7.30;2.95;;;;;;;8.40;88.21;99290.91;5426535;26;20480;-63
2024/04/08 06:16:36;;;;;;;12.15;1.85;;;;;;;8.42;88.12;99286.63;5395452;26;20898;-63
2024/04/08 06:19:04;;;;;;;6.95;1.90;;;;;;;8.43;88.75;99288.22;5403123;26;20014;-63
2024/04/08 06:21:31;;;;;;;11.80;2.50;;;;;;;8.43;88.25;99279.94;5397183;26;20462;-62
2024/04/08 06:23:58;;;;;;;11.38;2.00;;;;;;;8.44;88.53;99292.59;5417314;26;20429;-63
2024/04/08 06:26:26;;;;;;;8.10;2.22;;;;;;;8.46;88.95;99287.50;5417001;26;20034;-62
2024/04/08 06:28:53;;;;;;;5.03;1.77;;;;;;;8.48;88.83;99287.13;5403602;26;20015;-63
2024/04/08 06:31:21;;;;;;;5.80;1.58;;;;;;;8.48;89.30;99282.41;5401183;26;20023;-63
2024/04/08 06:33:48;;;;;;;14.27;3.53;;;;;;;8.51;89.12;99289.13;5407663;26;20032;-62
2024/04/08 06:36:15;;;;;;;6.25;1.77;;;;;;;8.50;89.46;99287.53;5400853;26;20004;-61
2024/04/08 06:38:45;;;;;;;5.15;2.30;;;;;;;8.49;89.59;99283.19;5397792;26;20008;-61
2024/04/08 06:41:16;;;;;;;13.23;4.25;;;;;;;8.47;89.25;99280.03;5419455;26;20003;-61
2024/04/08 06:43:43;;;;;;;4.38;1.67;;;;;;;8.46;89.95;99286.69;5411943;26;20019;-61
2024/04/08 06:46:11;;;;;;;10.88;2.58;;;;;;;8.43;89.57;99281.91;5426744;26;20017;-61
2024/04/08 06:48:38;;;;;;;11.02;1.55;;;;;;;8.41;90.15;99284.22;5427073;26;20125;-62
2024/04/08 06:51:06;;;;;;;5.60;1.80;;;;;;;8.38;90.18;99277.50;5425730;26;19999;-63
2024/04/08 06:53:36;;;;;;;6.50;1.55;;;;;;;8.40;90.26;99282.63;5407380;26;20043;-63
2024/04/08 06:56:06;;;;;;;8.68;1.83;;;;;;;8.39;90.05;99278.28;5405052;26;20008;-64
2024/04/08 06:58:33;;;;;;;8.25;1.55;;;;;;;8.39;90.21;99278.28;5422839;26;19999;-63
2024/04/08 07:01:01;;;;;;;10.02;2.08;;;;;;;8.39;90.28;99283.81;5425079;26;20336;-64
2024/04/08 07:03:29;;;;;;;9.75;1.40;;;;;;;8.40;90.32;99285.38;5426518;26;20010;-64
2024/04/08 07:05:56;;;;;;;5.07;1.25;;;;;;;8.41;90.93;99287.78;5408602;26;20039;-64
2024/04/08 07:08:23;;;;;;;7.13;1.27;;;;;;;8.45;90.63;99293.34;5420679;26;20023;-64
2024/04/08 07:10:51;;;;;;;8.18;1.33;;;;;;;8.48;90.84;99292.63;5414568;26;20015;-64
2024/04/08 07:13:18;;;;;;;10.52;1.27;;;;;;;8.47;90.99;99296.56;5407359;26;20116;-64
2024/04/08 07:15:58;;;;;;;5.10;0.98;;;;;;;8.43;90.77;99285.47;5393346;26;20009;-64
2024/04/08 07:18:25;;;;;;;9.32;1.55;;;;;;;8.42;91.14;99294.09;5395513;26;20008;-63
2024/04/08 07:20:52;;;;;;;6.38;1.17;;;;;;;8.41;91.27;99293.31;5415291;26;20043;-62
2024/04/08 07:23:20;;;;;;;5.28;0.82;;;;;;;8.37;91.14;99288.88;5400042;26;20004;-64
2024/04/08 07:25:49;;;;;;;4.05;0.90;;;;;;;8.39;91.40;99281.06;5377850;26;20349;-62
2024/04/08 07:28:18;;;;;;;7.72;1.10;;;;;;;8.39;91.55;99289.31;5390173;26;20020;-64
2024/04/08 07:30:45;;;;;;;3.45;0.88;;;;;;;8.41;91.26;99304.34;5391958;26;20018;-64
2024/04/08 07:33:12;;;;;;;6.03;0.90;;;;;;;8.43;91.59;99287.41;5378805;26;20023;-64
2024/04/08 07:35:40;;;;;;;3.13;1.08;;;;;;;8.43;91.60;99285.47;5378427;26;20012;-62
2024/04/08 07:38:07;;;;;;;5.40;1.00;;;;;;;8.45;91.52;99301.63;5393135;26;20005;-63
2024/04/08 07:40:35;;;;;;;5.93;0.98;;;;;;;8.46;91.52;99303.25;5377731;26;20337;-63
2024/04/08 07:43:02;;;;;;;7.72;1.10;;;;;;;8.46;91.53;99289.44;5393346;26;20041;-63
2024/04/08 07:45:30;;;;;;;2.78;0.70;;;;;;;8.46;91.93;99292.22;5375320;26;20701;-64
2024/04/08 07:47:57;;;;;;;4.43;0.98;;;;;;;8.47;91.92;99293.81;5373714;26;20163;-64
2024/04/08 07:50:25;;;;;;;5.63;0.68;;;;;;;8.48;91.70;99289.88;5393671;26;20080;-64
2024/04/08 07:52:52;;;;;;;5.57;2.72;;;;;;;8.46;91.69;99292.22;5393899;26;20016;-63
2024/04/08 07:55:20;;;;;;;4.55;1.48;;;;;;;8.44;92.19;99294.53;5402607;26;20330;-64
2024/04/08 07:57:48;;;;;;;7.97;0.85;;;;;;;8.44;91.79;99286.25;5390397;26;20012;-63
2024/04/08 08:00:16;;;;;;;5.15;1.02;;;;;;;8.42;92.42;99272.03;5378411;26;20000;-65
2024/04/08 08:02:44;;;;;;;4.38;1.65;;;;;;;8.42;92.46;99274.78;5381955;26;20016;-64
2024/04/08 08:05:12;;;;;;;2.92;0.60;;;;;;;8.43;92.78;99273.63;5379256;26;20003;-65
2024/04/08 08:07:39;;;;;;;3.65;0.70;;;;;;;8.48;92.62;99273.31;5370100;26;20009;-61
2024/04/08 08:10:07;;;;;;;3.85;1.02;;;;;;;8.51;92.59;99278.13;5385065;26;20442;-65
2024/04/08 08:12:34;;;;;;;1.45;0.50;;;;;;;8.54;92.88;99275.44;5374114;26;20014;-65
2024/04/08 08:15:02;;;;;;;11.45;1.65;;;;;;;8.58;92.69;99280.97;5389513;26;20462;-64
2024/04/08 08:17:29;;;;;;;9.40;2.03;;;;;;;8.57;92.55;99274.69;5383463;26;20007;-64
2024/04/08 08:19:57;;;;;;;1.77;1.23;;;;;;;8.54;93.01;99269.09;5387801;26;20004;-65
2024/04/08 08:22:24;;;;;;;2.13;1.10;;;;;;;8.45;92.70;99277.63;5373557;26;20015;-65
2024/04/08 08:24:52;;;;;;;4.00;0.90;;;;;;;8.41;92.87;99275.97;5374465;26;20421;-64
2024/04/08 08:27:19;;;;;;;2.67;1.27;;;;;;;8.37;93.07;99272.31;5375723;26;20077;-64
2024/04/08 08:29:51;;;;;;;2.28;0.70;;;;;;;8.36;93.28;99268.00;5400031;26;20005;-65
2024/04/08 08:32:18;;;;;;;4.72;1.05;;;;;;;8.36;93.42;99268.00;5374337;26;20000;-64
2024/04/08 08:34:46;;;;;;;3.85;0.80;;;;;;;8.37;93.57;99269.56;5376024;26;20048;-64
2024/04/08 08:37:13;;;;;;;3.58;0.70;;;;;;;8.33;93.85;99274.25;5385848;26;20004;-64
2024/04/08 08:39:41;;;;;;;8.73;0.68;;;;;;;8.32;93.36;99272.63;5376219;26;20004;-64
2024/04/08 08:42:08;;;;;;;4.53;0.80;;;;;;;8.35;93.80;99277.41;5381132;26;20012;-64
2024/04/08 08:44:37;;;;;;;6.25;0.80;;;;;;;8.37;93.55;99275.88;5391488;26;20019;-65
2024/04/08 08:47:05;;;;;;;3.40;0.82;;;;;;;8.40;93.83;99266.09;5385229;26;20004;-64
2024/04/08 08:49:32;;;;;;;5.80;1.05;;;;;;;8.42;93.84;99261.78;5392238;26;20040;-64
2024/04/08 08:52:00;;;;;;;6.20;1.10;;;;;;;8.44;93.59;99265.00;5377579;26;20001;-64
2024/04/08 08:54:32;;;;;;;11.35;1.88;;;;;;;8.42;93.98;99258.22;5374441;26;20027;-65
2024/04/08 08:56:59;;;;;;;9.35;1.60;;;;;;;8.39;93.85;99259.75;5380001;26;20018;-63
2024/04/08 08:59:27;;;;;;;6.47;1.20;;;;;;;8.34;94.24;99248.28;5370157;26;20115;-66
2024/04/08 09:01:58;;;;;;;5.38;1.27;;;;;;;8.28;94.06;99255.25;5375304;26;20013;-63
2024/04/08 09:04:29;;;;;;;4.63;1.45;;;;;;;8.22;93.93;99253.91;5364969;26;20024;-64
2024/04/08 09:06:56;;;;;;;3.97;1.17;;;;;;;8.14;94.61;99249.41;5361946;26;20027;-64
2024/04/08 09:09:24;;;;;;;4.03;1.13;;;;;;;8.10;94.80;99249.34;5373920;26;20051;-64
2024/04/08 09:11:51;;;;;;;8.35;1.52;;;;;;;8.11;94.66;99250.94;5373858;26;20018;-63
2024/04/08 09:14:19;;;;;;;14.25;2.50;;;;;;;8.10;94.86;99237.53;5392103;26;20102;-64
2024/04/08 09:16:48;;;;;;;4.03;1.02;;;;;;;8.11;95.04;99233.59;5376583;26;20110;-63
2024/04/08 09:19:16;;;;;;;2.45;1.02;;;;;;;8.12;95.37;99226.94;5402835;26;20016;-64
2024/04/08 09:21:44;;;;;;;4.35;0.73;;;;;;;8.20;95.41;99228.66;5374532;26;20020;-64
2024/04/08 09:24:11;;;;;;;3.25;0.90;;;;;;;8.24;95.30;99218.50;5386057;26;20016;-64
2024/04/08 09:26:40;;;;;;;7.90;2.35;;;;;;;8.25;95.13;99228.38;5387601;26;20033;-64
2024/04/08 09:29:07;;;;;;;4.45;0.80;;;;;;;8.24;95.70;99221.25;5374302;26;20081;-64
2024/04/08 09:31:35;;;;;;;3.13;0.60;;;;;;;8.25;95.58;99217.34;5376848;26;20762;-63
2024/04/08 09:34:03;;;;;;;2.30;0.75;;;;;;;8.30;95.94;99217.06;5380998;26;20015;-63
2024/04/08 09:36:32;;;;;;;3.70;0.88;;;;;;;8.28;95.95;99209.16;5380472;26;20040;-61
2024/04/08 09:39:02;;;;;;;4.00;1.27;;;;;;;8.34;96.02;99220.69;5371670;26;20016;-62
2024/04/08 09:41:30;;;;;;;6.28;1.00;;;;;;;8.40;95.96;99214.50;5373871;26;20022;-63
2024/04/08 09:43:58;;;;;;;5.32;0.70;;;;;;;8.48;95.72;99218.97;5394637;26;20887;-62
2024/04/08 09:46:27;;;;;;;3.60;0.90;;;;;;;8.54;96.37;99222.22;5385289;26;20509;-62
2024/04/08 09:48:55;;;;;;;5.95;0.88;;;;;;;8.53;96.29;99209.56;5380349;26;20697;-63
2024/04/08 09:51:26;;;;;;;3.80;0.82;;;;;;;8.51;96.52;99203.63;5403008;26;20008;-63
2024/04/08 09:53:54;;;;;;;8.27;1.20;;;;;;;8.49;96.46;99200.47;5385650;26;20036;-62
2024/04/08 09:56:28;;;;;;;5.00;0.98;;;;;;;8.50;96.46;99196.53;5379622;26;20408;-62
2024/04/08 09:59:08;;;;;;;5.90;1.25;;;;;;;8.49;96.86;99194.94;5372643;26;19999;-61
2024/04/08 10:01:38;;;;;;;3.97;1.38;;;;;;;8.46;97.03;99195.69;5395827;26;20461;-59
2024/04/08 10:04:15;;;;;;;8.75;1.40;;;;;;;8.47;97.14;99195.28;5387021;26;20012;-60
2024/04/08 10:06:43;;;;;;;4.93;1.35;;;;;;;8.47;97.38;99192.53;5381958;26;20518;-61
2024/04/08 10:09:11;;;;;;;5.10;1.40;;;;;;;8.46;97.67;99206.72;5383359;26;20036;-61
2024/04/08 10:11:39;;;;;;;4.63;1.00;;;;;;;8.48;97.92;99198.84;5375106;26;20005;-61
2024/04/08 10:14:19;;;;;;;9.77;2.45;;;;;;;8.50;97.69;99186.28;5381428;26;20004;-61
2024/04/08 10:16:53;;;;;;;8.93;1.20;;;;;;;8.57;97.87;99191.13;5403601;26;20018;-62
2024/04/08 10:19:23;;;;;;;4.68;1.02;;;;;;;8.56;98.36;99186.78;5381652;26;20034;-62
2024/04/08 10:22:00;;;;;;;6.88;1.02;;;;;;;8.55;98.05;99183.22;5372331;26;20019;-62
2024/04/08 10:24:30;;;;;;;6.07;1.15;;;;;;;8.60;98.30;99171.09;5387573;26;20472;-62
2024/04/08 10:27:08;;;;;;;6.28;1.17;;;;;;;8.69;98.50;99177.13;5379047;26;20323;-62
2024/04/08 10:29:36;;;;;;;8.52;1.50;;;;;;;8.78;98.71;99177.69;5391190;26;20005;-63
2024/04/08 10:32:08;;;;;;;4.82;1.15;;;;;;;8.83;98.65;99182.88;5386767;26;20008;-61
2024/04/08 10:34:36;;;;;;;8.15;1.33;;;;;;;8.86;98.75;99179.38;5370408;26;20082;-61
2024/04/08 10:37:04;;;;;;;6.10;1.10;;;;;;;8.85;98.56;99175.00;5386854;26;20019;-61
2024/04/08 10:39:31;;;;;;;10.57;1.02;;;;;;;8.83;98.97;99171.03;5371769;26;20016;-61
2024/04/08 10:42:12;;;;;;;3.63;1.10;;;;;;;8.81;99.02;99165.91;5372548;26;20008;-62
2024/04/08 10:44:40;;;;;;;4.40;1.38;;;;;;;8.78;99.24;99168.59;5371115;26;20008;-62
2024/04/08 10:47:09;;;;;;;10.25;1.38;;;;;;;8.77;99.22;99162.28;5371866;26;20020;-60
2024/04/08 10:49:37;;;;;;;10.88;1.83;;;;;;;8.74;99.30;99168.53;5378077;26;20016;-60
2024/04/08 10:52:04;;;;;;;7.30;2.20;;;;;;;8.75;99.48;99161.84;5389833;26;20019;-60
2024/04/08 10:54:32;;;;;;;5.38;1.40;;;;;;;8.81;99.57;99146.59;5380672;26;20438;-61
2024/04/08 10:57:01;;;;;;;7.57;1.92;;;;;;;8.85;99.80;99157.66;5374550;26;20004;-61
2024/04/08 10:59:28;;;;;;;12.20;1.67;;;;;;;8.89;99.54;99148.28;5396742;26;20084;-61
2024/04/08 11:01:57;;;;;;;9.13;1.83;;;;;;;8.92;99.76;99136.47;5401834;26;20004;-60
2024/04/08 11:04:25;;;;;;;10.35;2.55;;;;;;;9.00;100.00;99149.19;5374661;26;20040;-61
2024/04/08 11:06:52;;;;;;;6.03;2.25;;;;;;;9.12;99.97;99151.75;5382557;26;20004;-63
2024/04/08 11:09:20;;;;;;;12.82;2.35;;;;;;;9.21;99.80;99143.19;5379596;26;20528;-62
2024/04/08 11:11:47;;;;;;;11.00;1.92;;;;;;;9.25;100.00;99145.97;5388630;26;20043;-62
2024/04/08 11:14:14;;;;;;;11.60;1.83;;;;;;;9.28;99.83;99142.47;5377461;26;20812;-61
2024/04/08 11:16:42;;;;;;;9.20;2.67;;;;;;;9.33;99.81;99139.38;5390031;26;20398;-61
2024/04/08 11:19:11;;;;;;;14.82;2.30;;;;;;;9.33;100.00;99128.34;5398778;26;19999;-62
2024/04/08 11:21:38;;;;;;;15.73;2.00;;;;;;;9.34;100.00;99129.94;5376979;26;20005;-65
2024/04/08 11:24:11;;;;;;;10.40;1.75;;;;;;;9.36;100.00;99125.63;5374143;26;20032;-65
2024/04/08 11:26:39;;;;;;;12.45;3.45;;;;;;;9.36;100.00;99127.59;5379701;26;20020;-64
2024/04/08 11:29:22;;;;;;;10.77;1.98;;;;;;;9.41;100.00;99119.75;5378837;26;20004;-64
2024/04/08 11:31:49;;;;;;;7.45;2.00;;;;;;;9.47;100.00;99128.50;5384711;26;20000;-64
2024/04/08 11:34:17;;;;;;;7.05;2.08;;;;;;;9.46;100.00;99127.72;5388201;26;20015;-64
2024/04/08 11:36:44;;;;;;;10.70;1.73;;;;;;;9.46;100.00;99126.91;5374307;26;20000;-64
2024/04/08 11:39:12;;;;;;;13.63;2.05;;;;;;;9.47;100.00;99128.50;5374814;26;20316;-64
2024/04/08 11:41:39;;;;;;;6.50;3.08;;;;;;;9.49;100.00;99131.69;5387581;26;20351;-64